Slater, MO

4:13 PM CDT on July 22, 2014 (GMT -0500)
Viertel Memorial (KVER) Elev 715 ft | 38.95 °N, 92.68 °W | Change Station
Active Advisory: Heat Advisory

Current weather conditions updated 18 minutes ago

Clear
Clear
93 °F
Feels Like 105 °F
N
8
Wind Variable Wind from SSW

Tomorrow is forecast to be Much Cooler than today.

Today
High -- | Low -- °F
--% Chance of Precip.
Yesterday
High -- | Low -- °F
Precip. -- in
6:03 AM 8:33 PM
Waning Crescent, 15% visible
Pressure 29.98 in
Visibility 10.0 miles
Clouds Clear
Heat Index 105 °F
Dew Point 76 °F
Humidity 57%
Rainfall 0.00 in
Snow Depth Not available.
UV 8 out of 12
Pollen 5.70 out of 12
Air Quality Not available.
Flu Activity Not available.
METAR KVER 222055Z AUTO 20007KT 10SM CLR 34/24 A2998 RMK AO2 T03390244

More Conditions Fewer Conditions

Pressure 29.98 in
Visibility 10.0 miles
Clouds Clear
Heat Index 105 °F
Dew Point 76 °F
Humidity 57%
Rainfall 0.00 in
Snow Depth Not available.
UV 8 out of 12
Pollen 5.70 out of 12
Air Quality Not available.
Flu Activity Not available.
METAR KVER 222055Z AUTO 20007KT 10SM CLR 34/24 A2998 RMK AO2 T03390244

More Conditions Fewer Conditions

10-Day Weather Forecast

Almanac

Astronomy

Jul. 22, 2014 Rise Set
Actual Time 6:03 AM CDT 8:33 PM CDT
Civil Twilight 5:33 AM CDT 9:03 PM CDT
Nautical Twilight 4:54 AM CDT 9:41 PM CDT
Astronomical Twilight 4:12 AM CDT 10:24 PM CDT
Moon 2:37 AM CDT 5:11 PM CDT
Length of Visible Light 15h 30m
Length of Day
14h 29m
Tomorrow will be 1m 37s shorter.
Waning Crescent, 15% of the Moon is Illuminated
Today
Waning Crescent
Jul 26
New
Aug 3
First Quarter
Aug 10
Full
Aug 17
Last Quarter

Today's Extremes

State Highs State Lows

Community

WunderPhotos

Upload Photos

1,736,354 photos uploaded!

Nearby

Snow Depth

Station Depth Elevation
No new snow has been reported.

Earthquake Activity

City Distance Mag. Time & Date
No recent earthquake activity has been reported nearby.
Minimum magnitude displayed is 2.5.

Coastal Water Temperatures

Place Temperature
No Stations Reporting

Nearby Weather Stations

Station Location Temp. Heat Index Dew Point Humidity Wind Precip. Elev Updated Type
MesoWest MRSHLL , Marshall, MO 91 °F 87 °F - - North  at  - 0.00 in / hr 641 ft 1:50 PM CDT MADIS
KMMO Radio, Marshall, Missouri, Marshall, MO 89.0 °F 99 °F 75 °F 64% West  at  5.0 mph 0.00 in / hr 791 ft 4:13 PM CDT Rapid Fire
MesoWest BLOSER , Malta Bend, MO 91 °F 87 °F - - North  at  - 0.00 in / hr 687 ft 1:35 PM CDT MADIS
MesoWest WAVRLY , Waverly, MO 84 °F 81 °F - - North  at  - 0.00 in / hr 678 ft 1:20 PM CDT MADIS
MesoWest BNVILE , Boonville, MO 99 °F 93 °F - - North  at  - 0.00 in / hr 599 ft 2:30 PM CDT MADIS
APRSWXNET Waverly MO , Waverly, MO 88 °F 107 °F 81 °F 81% ENE  at  0 mph 0.00 in / hr 797 ft 3:03 PM CDT MADIS

Show More Stations Show Fewer Stations